LFLC/CFE METAR and TAF weather

Enter ICAO airport designator
Station Type Date Time Source
LFLC METAR 2020/01/20 10:00 UTC NOAA

LFLC 201000Z AUTO 36010KT CAVOK 02/M02 Q1039 NOSIG


Station Type Date Time Source
LFLC Decoded METAR 2020/01/20 10:00 UTC NOAA

Clermont-Ferrand, France (LFLC) 45-47N 003-10E 330M
Jan 20, 2020 - 05:00 AM EST / 2020.01.20 1000 UTC
Wind: from the N (360 degrees) at 12 MPH (10 KT):0
Visibility: greater than 7 mile(s):0
Temperature: 35 F (2 C)
Windchill: 26 F (-3 C):1
Dew Point: 28 F (-2 C)
Relative Humidity: 74%
Pressure (altimeter): 30.68 in. Hg (1039 hPa)
ob: LFLC 201000Z AUTO 36010KT CAVOK 02/M02 Q1039 NOSIG
cycle: 10

Station Type Date Time Source
LFLC TAF 2020/01/20 09:42 UTC NOAA

TAF LFLC 200800Z 2009/2109 35007KT 9999 SCT035 PROB40
TEMPO 2009/2014 BKN025
FM201800 36004KT CAVOK PROB30
TEMPO 2105/2109 0600 BCFG SCT002

Example: see airport list